sensor_id;sensor_type;location;lat;lon;timestamp;pressure;altitude;pressure_sealevel;temperature;humidity
49627;BME280;35527;54.616;39.786;2022-08-03T00:01:24;99893.59;;;18.15;100.00
49627;BME280;35527;54.616;39.786;2022-08-03T00:04:28;99894.50;;;18.14;100.00
49627;BME280;35527;54.616;39.786;2022-08-03T00:07:31;99917.47;;;18.23;100.00
49627;BME280;35527;54.616;39.786;2022-08-03T00:10:36;99922.72;;;18.23;100.00
49627;BME280;35527;54.616;39.786;2022-08-03T00:13:40;99877.34;;;17.97;100.00
49627;BME280;35527;54.616;39.786;2022-08-03T00:16:46;99908.78;;;18.10;100.00
49627;BME280;35527;54.616;39.786;2022-08-03T00:19:49;99921.34;;;18.17;100.00
49627;BME280;35527;54.616;39.786;2022-08-03T00:22:53;99931.09;;;18.15;100.00
49627;BME280;35527;54.616;39.786;2022-08-03T00:25:57;99922.38;;;18.02;100.00
49627;BME280;35527;54.616;39.786;2022-08-03T00:29:00;99930.38;;;18.00;100.00
49627;BME280;35527;54.616;39.786;2022-08-03T00:32:05;99937.78;;;17.94;100.00
49627;BME280;35527;54.616;39.786;2022-08-03T00:35:13;99916.38;;;17.74;100.00
49627;BME280;35527;54.616;39.786;2022-08-03T00:38:20;99922.88;;;17.69;100.00
49627;BME280;35527;54.616;39.786;2022-08-03T00:41:24;99932.47;;;17.68;100.00
49627;BME280;35527;54.616;39.786;2022-08-03T00:44:27;99932.38;;;17.70;100.00
49627;BME280;35527;54.616;39.786;2022-08-03T00:47:33;99931.75;;;17.66;100.00
49627;BME280;35527;54.616;39.786;2022-08-03T00:50:41;99936.38;;;17.63;100.00
49627;BME280;35527;54.616;39.786;2022-08-03T00:53:45;99918.84;;;17.50;100.00
49627;BME280;35527;54.616;39.786;2022-08-03T00:56:48;99931.50;;;17.56;100.00
49627;BME280;35527;54.616;39.786;2022-08-03T00:59:55;99929.31;;;17.50;100.00
49627;BME280;35527;54.616;39.786;2022-08-03T01:03:04;99924.28;;;17.47;100.00
49627;BME280;35527;54.616;39.786;2022-08-03T01:09:21;99933.03;;;17.33;100.00
49627;BME280;35527;54.616;39.786;2022-08-03T01:12:39;99925.25;;;17.19;100.00
49627;BME280;35527;54.616;39.786;2022-08-03T01:23:09;99927.69;;;17.08;100.00
49627;BME280;35527;54.616;39.786;2022-08-03T01:26:54;99933.13;;;17.05;100.00
49627;BME280;35527;54.616;39.786;2022-08-03T01:33:17;99921.06;;;16.89;100.00
49627;BME280;35527;54.616;39.786;2022-08-03T01:36:25;99937.56;;;16.90;100.00
49627;BME280;35527;54.616;39.786;2022-08-03T01:39:32;99941.97;;;16.89;100.00
49627;BME280;35527;54.616;39.786;2022-08-03T01:42:39;99924.50;;;16.76;100.00
49627;BME280;35527;54.616;39.786;2022-08-03T01:45:44;99949.63;;;16.78;100.00
49627;BME280;35527;54.616;39.786;2022-08-03T01:48:47;99942.75;;;16.77;100.00
49627;BME280;35527;54.616;39.786;2022-08-03T01:51:54;99942.75;;;16.77;100.00
49627;BME280;35527;54.616;39.786;2022-08-03T01:55:01;99946.28;;;16.76;100.00
49627;BME280;35527;54.616;39.786;2022-08-03T01:58:13;99955.03;;;16.75;100.00
49627;BME280;35527;54.616;39.786;2022-08-03T02:01:20;99928.16;;;16.59;100.00
49627;BME280;35527;54.616;39.786;2022-08-03T02:04:26;99954.47;;;16.70;100.00
49627;BME280;35527;54.616;39.786;2022-08-03T02:07:32;99915.94;;;16.45;100.00
49627;BME280;35527;54.616;39.786;2022-08-03T02:10:36;99961.47;;;16.70;100.00
49627;BME280;35527;54.616;39.786;2022-08-03T02:13:43;99961.09;;;16.76;100.00
49627;BME280;35527;54.616;39.786;2022-08-03T02:16:50;99960.09;;;16.78;100.00
49627;BME280;35527;54.616;39.786;2022-08-03T02:19:55;99937.31;;;16.66;100.00
49627;BME280;35527;54.616;39.786;2022-08-03T02:23:05;99937.19;;;16.67;100.00
49627;BME280;35527;54.616;39.786;2022-08-03T02:26:14;99944.75;;;16.72;100.00
49627;BME280;35527;54.616;39.786;2022-08-03T02:29:23;99963.72;;;16.90;100.00
49627;BME280;35527;54.616;39.786;2022-08-03T02:32:34;99961.19;;;17.03;100.00
49627;BME280;35527;54.616;39.786;2022-08-03T02:35:39;99941.66;;;17.08;100.00
49627;BME280;35527;54.616;39.786;2022-08-03T02:38:44;99965.81;;;17.39;100.00
49627;BME280;35527;54.616;39.786;2022-08-03T02:41:56;99950.31;;;17.36;100.00
49627;BME280;35527;54.616;39.786;2022-08-03T02:45:08;99963.44;;;17.49;100.00
49627;BME280;35527;54.616;39.786;2022-08-03T02:48:19;99948.03;;;17.44;100.00
49627;BME280;35527;54.616;39.786;2022-08-03T02:51:29;99952.66;;;17.53;100.00
49627;BME280;35527;54.616;39.786;2022-08-03T02:54:35;99964.44;;;17.73;100.00
49627;BME280;35527;54.616;39.786;2022-08-03T02:57:41;99965.34;;;17.87;100.00
49627;BME280;35527;54.616;39.786;2022-08-03T03:00:47;99964.91;;;17.93;100.00
49627;BME280;35527;54.616;39.786;2022-08-03T03:03:55;99954.78;;;17.74;100.00
49627;BME280;35527;54.616;39.786;2022-08-03T03:07:01;99955.00;;;17.71;100.00
49627;BME280;35527;54.616;39.786;2022-08-03T03:10:06;99970.06;;;18.07;100.00
49627;BME280;35527;54.616;39.786;2022-08-03T03:13:13;99962.00;;;18.36;100.00
49627;BME280;35527;54.616;39.786;2022-08-03T03:16:17;99968.06;;;18.75;100.00
49627;BME280;35527;54.616;39.786;2022-08-03T03:19:24;99958.28;;;18.89;100.00
49627;BME280;35527;54.616;39.786;2022-08-03T03:22:28;99946.56;;;19.06;100.00
49627;BME280;35527;54.616;39.786;2022-08-03T03:25:33;99944.28;;;19.26;100.00
49627;BME280;35527;54.616;39.786;2022-08-03T03:28:36;99980.41;;;19.70;100.00
49627;BME280;35527;54.616;39.786;2022-08-03T03:31:40;99984.47;;;20.21;100.00
49627;BME280;35527;54.616;39.786;2022-08-03T03:34:43;99972.63;;;21.81;93.40
49627;BME280;35527;54.616;39.786;2022-08-03T03:37:48;99967.59;;;24.37;75.23
49627;BME280;35527;54.616;39.786;2022-08-03T03:40:55;99984.44;;;26.34;59.33
49627;BME280;35527;54.616;39.786;2022-08-03T03:43:59;99977.44;;;26.93;54.64
49627;BME280;35527;54.616;39.786;2022-08-03T03:47:02;99988.31;;;26.14;56.33
49627;BME280;35527;54.616;39.786;2022-08-03T03:50:07;99995.25;;;24.52;63.23
49627;BME280;35527;54.616;39.786;2022-08-03T03:53:12;99980.50;;;23.34;71.79
49627;BME280;35527;54.616;39.786;2022-08-03T03:56:18;99979.38;;;22.77;77.04
49627;BME280;35527;54.616;39.786;2022-08-03T03:59:21;99985.09;;;23.32;76.09
49627;BME280;35527;54.616;39.786;2022-08-03T04:02:25;99973.09;;;22.99;73.03
49627;BME280;35527;54.616;39.786;2022-08-03T04:05:30;100008.63;;;24.41;67.65
49627;BME280;35527;54.616;39.786;2022-08-03T04:08:56;99991.84;;;26.22;57.82
49627;BME280;35527;54.616;39.786;2022-08-03T04:12:22;99995.66;;;27.55;51.88
49627;BME280;35527;54.616;39.786;2022-08-03T04:15:30;100004.84;;;28.10;49.28
49627;BME280;35527;54.616;39.786;2022-08-03T04:18:37;100022.72;;;28.41;47.48
49627;BME280;35527;54.616;39.786;2022-08-03T04:21:43;100015.59;;;28.33;47.36
49627;BME280;35527;54.616;39.786;2022-08-03T04:24:49;100013.50;;;27.88;47.96
49627;BME280;35527;54.616;39.786;2022-08-03T04:27:59;100023.94;;;27.81;48.61
49627;BME280;35527;54.616;39.786;2022-08-03T04:31:03;100024.25;;;28.27;47.83
49627;BME280;35527;54.616;39.786;2022-08-03T04:34:07;100013.66;;;29.14;44.88
49627;BME280;35527;54.616;39.786;2022-08-03T04:37:13;100024.41;;;29.98;42.85
49627;BME280;35527;54.616;39.786;2022-08-03T04:40:38;100017.16;;;30.06;41.69
49627;BME280;35527;54.616;39.786;2022-08-03T04:43:43;100006.16;;;29.17;41.71
49627;BME280;35527;54.616;39.786;2022-08-03T04:46:49;100014.44;;;29.23;42.67
49627;BME280;35527;54.616;39.786;2022-08-03T04:49:54;100027.03;;;29.37;42.14
49627;BME280;35527;54.616;39.786;2022-08-03T04:52:59;100019.38;;;29.65;40.94
49627;BME280;35527;54.616;39.786;2022-08-03T04:56:03;100007.66;;;29.66;40.82
49627;BME280;35527;54.616;39.786;2022-08-03T04:59:09;100028.53;;;28.52;42.28
49627;BME280;35527;54.616;39.786;2022-08-03T05:02:12;100027.19;;;28.65;42.84
49627;BME280;35527;54.616;39.786;2022-08-03T05:05:16;100035.22;;;28.32;43.48
49627;BME280;35527;54.616;39.786;2022-08-03T05:08:19;100019.47;;;27.73;44.94
49627;BME280;35527;54.616;39.786;2022-08-03T05:11:24;100023.25;;;28.36;43.99
49627;BME280;35527;54.616;39.786;2022-08-03T05:14:26;100009.56;;;29.03;42.77
49627;BME280;35527;54.616;39.786;2022-08-03T05:17:31;100003.19;;;29.58;40.95
49627;BME280;35527;54.616;39.786;2022-08-03T05:20:35;100016.19;;;30.67;39.66
49627;BME280;35527;54.616;39.786;2022-08-03T05:23:41;100006.22;;;31.63;36.60
49627;BME280;35527;54.616;39.786;2022-08-03T05:26:43;100024.06;;;32.34;35.89
49627;BME280;35527;54.616;39.786;2022-08-03T05:30:15;100015.41;;;31.82;36.88
49627;BME280;35527;54.616;39.786;2022-08-03T05:33:19;100033.09;;;31.98;36.64
49627;BME280;35527;54.616;39.786;2022-08-03T05:36:24;100019.56;;;32.06;35.36
49627;BME280;35527;54.616;39.786;2022-08-03T05:39:29;100029.34;;;32.90;35.18
49627;BME280;35527;54.616;39.786;2022-08-03T05:42:36;100020.09;;;34.14;33.52
49627;BME280;35527;54.616;39.786;2022-08-03T05:45:39;100022.97;;;34.97;32.50
49627;BME280;35527;54.616;39.786;2022-08-03T05:48:44;100036.63;;;33.77;33.12
49627;BME280;35527;54.616;39.786;2022-08-03T05:52:05;100021.94;;;33.60;33.98
49627;BME280;35527;54.616;39.786;2022-08-03T05:55:11;100030.66;;;33.01;34.71
49627;BME280;35527;54.616;39.786;2022-08-03T05:58:15;100028.66;;;33.23;33.32
49627;BME280;35527;54.616;39.786;2022-08-03T06:01:20;100016.16;;;34.23;32.26
49627;BME280;35527;54.616;39.786;2022-08-03T06:04:26;100027.16;;;35.88;29.51
49627;BME280;35527;54.616;39.786;2022-08-03T06:07:30;100002.22;;;35.11;29.95
49627;BME280;35527;54.616;39.786;2022-08-03T06:10:34;100037.59;;;33.50;32.16
49627;BME280;35527;54.616;39.786;2022-08-03T06:13:43;100031.88;;;31.79;35.73
49627;BME280;35527;54.616;39.786;2022-08-03T06:16:47;100037.50;;;33.16;33.57
49627;BME280;35527;54.616;39.786;2022-08-03T06:19:52;100022.19;;;34.12;31.96
49627;BME280;35527;54.616;39.786;2022-08-03T06:22:55;100022.28;;;34.63;31.78
49627;BME280;35527;54.616;39.786;2022-08-03T06:26:01;100037.69;;;34.88;31.15
49627;BME280;35527;54.616;39.786;2022-08-03T06:29:04;100012.78;;;35.76;29.86
49627;BME280;35527;54.616;39.786;2022-08-03T06:32:09;100025.78;;;37.03;28.09
49627;BME280;35527;54.616;39.786;2022-08-03T06:35:14;100023.84;;;36.36;28.66
49627;BME280;35527;54.616;39.786;2022-08-03T06:38:18;100031.19;;;36.47;28.70
49627;BME280;35527;54.616;39.786;2022-08-03T06:41:22;100035.19;;;36.20;28.16
49627;BME280;35527;54.616;39.786;2022-08-03T06:44:26;100018.81;;;35.71;29.29
49627;BME280;35527;54.616;39.786;2022-08-03T06:47:29;100015.56;;;35.62;28.97
49627;BME280;35527;54.616;39.786;2022-08-03T06:50:33;100014.09;;;35.35;29.48
49627;BME280;35527;54.616;39.786;2022-08-03T06:53:36;100024.19;;;35.08;30.06
49627;BME280;35527;54.616;39.786;2022-08-03T06:56:40;100023.31;;;36.83;28.51
49627;BME280;35527;54.616;39.786;2022-08-03T06:59:45;100026.94;;;36.58;27.11
49627;BME280;35527;54.616;39.786;2022-08-03T07:02:52;100029.31;;;36.29;28.85
49627;BME280;35527;54.616;39.786;2022-08-03T07:05:59;100026.28;;;37.11;28.68
49627;BME280;35527;54.616;39.786;2022-08-03T07:09:03;100027.94;;;38.43;27.40
49627;BME280;35527;54.616;39.786;2022-08-03T07:12:06;100031.09;;;39.33;25.56
49627;BME280;35527;54.616;39.786;2022-08-03T07:15:09;100018.69;;;39.71;24.20
49627;BME280;35527;54.616;39.786;2022-08-03T07:18:14;100025.09;;;38.38;25.28
49627;BME280;35527;54.616;39.786;2022-08-03T07:21:18;100033.34;;;38.43;25.27
49627;BME280;35527;54.616;39.786;2022-08-03T07:24:23;100014.41;;;38.55;24.05
49627;BME280;35527;54.616;39.786;2022-08-03T07:27:29;100017.16;;;37.54;25.61
49627;BME280;35527;54.616;39.786;2022-08-03T07:30:32;100024.97;;;38.57;24.18
49627;BME280;35527;54.616;39.786;2022-08-03T07:33:38;100029.22;;;40.01;22.41
49627;BME280;35527;54.616;39.786;2022-08-03T07:36:40;100020.28;;;39.50;22.27
49627;BME280;35527;54.616;39.786;2022-08-03T07:39:44;100030.69;;;40.47;21.59
49627;BME280;35527;54.616;39.786;2022-08-03T07:42:48;100027.53;;;41.00;20.54
49627;BME280;35527;54.616;39.786;2022-08-03T07:45:52;100019.06;;;39.00;22.21
49627;BME280;35527;54.616;39.786;2022-08-03T07:48:56;100021.69;;;38.43;23.58
49627;BME280;35527;54.616;39.786;2022-08-03T07:51:59;100034.13;;;37.43;24.20
49627;BME280;35527;54.616;39.786;2022-08-03T07:55:22;100019.31;;;37.87;23.96
49627;BME280;35527;54.616;39.786;2022-08-03T07:58:28;100016.28;;;38.31;22.69
49627;BME280;35527;54.616;39.786;2022-08-03T08:01:30;100019.88;;;36.39;25.12
49627;BME280;35527;54.616;39.786;2022-08-03T08:04:35;100039.63;;;36.51;24.88
49627;BME280;35527;54.616;39.786;2022-08-03T08:07:39;100036.34;;;37.34;24.40
49627;BME280;35527;54.616;39.786;2022-08-03T08:10:42;100033.00;;;37.09;24.66
49627;BME280;35527;54.616;39.786;2022-08-03T08:13:45;100048.53;;;36.58;25.16
49627;BME280;35527;54.616;39.786;2022-08-03T08:16:51;100047.09;;;35.87;26.23
49627;BME280;35527;54.616;39.786;2022-08-03T08:19:56;100040.69;;;36.50;25.53
49627;BME280;35527;54.616;39.786;2022-08-03T08:23:02;100040.38;;;37.97;23.72
49627;BME280;35527;54.616;39.786;2022-08-03T08:26:05;100055.53;;;38.57;23.56
49627;BME280;35527;54.616;39.786;2022-08-03T08:29:08;100035.94;;;38.50;23.81
49627;BME280;35527;54.616;39.786;2022-08-03T08:32:11;100034.72;;;36.85;24.73
49627;BME280;35527;54.616;39.786;2022-08-03T08:35:18;100029.56;;;36.03;24.70
49627;BME280;35527;54.616;39.786;2022-08-03T08:38:22;100023.06;;;34.70;26.35
49627;BME280;35527;54.616;39.786;2022-08-03T08:41:26;100057.13;;;35.41;26.36
49627;BME280;35527;54.616;39.786;2022-08-03T08:44:29;100019.22;;;33.47;26.33
49627;BME280;35527;54.616;39.786;2022-08-03T08:47:36;100051.88;;;32.54;28.05
49627;BME280;35527;54.616;39.786;2022-08-03T08:50:39;100048.38;;;33.70;27.41
49627;BME280;35527;54.616;39.786;2022-08-03T08:53:48;100053.72;;;35.21;25.04
49627;BME280;35527;54.616;39.786;2022-08-03T08:56:52;100034.88;;;34.69;26.32
49627;BME280;35527;54.616;39.786;2022-08-03T08:59:58;100047.28;;;35.29;25.83
49627;BME280;35527;54.616;39.786;2022-08-03T09:03:02;100045.69;;;36.09;25.45
49627;BME280;35527;54.616;39.786;2022-08-03T09:06:06;100040.91;;;35.80;24.44
49627;BME280;35527;54.616;39.786;2022-08-03T09:09:10;100048.38;;;35.14;24.97
49627;BME280;35527;54.616;39.786;2022-08-03T09:12:13;100042.66;;;35.74;24.55
49627;BME280;35527;54.616;39.786;2022-08-03T09:15:37;100056.13;;;35.36;25.33
49627;BME280;35527;54.616;39.786;2022-08-03T09:18:47;100043.41;;;33.73;26.82
49627;BME280;35527;54.616;39.786;2022-08-03T09:22:20;100038.75;;;34.87;25.51
49627;BME280;35527;54.616;39.786;2022-08-03T09:25:37;100012.13;;;35.55;24.65
49627;BME280;35527;54.616;39.786;2022-08-03T09:28:41;100043.63;;;36.05;24.20
49627;BME280;35527;54.616;39.786;2022-08-03T09:31:45;100024.41;;;34.99;24.65
49627;BME280;35527;54.616;39.786;2022-08-03T09:34:50;100049.44;;;33.69;26.63
49627;BME280;35527;54.616;39.786;2022-08-03T09:38:25;100041.97;;;32.55;27.14
49627;BME280;35527;54.616;39.786;2022-08-03T09:41:29;100045.88;;;33.48;26.13
49627;BME280;35527;54.616;39.786;2022-08-03T09:44:40;100000.28;;;34.80;24.61
49627;BME280;35527;54.616;39.786;2022-08-03T09:47:43;100049.22;;;33.77;26.18
49627;BME280;35527;54.616;39.786;2022-08-03T09:50:51;100062.19;;;33.53;26.82
49627;BME280;35527;54.616;39.786;2022-08-03T09:53:54;100058.38;;;33.28;27.29
49627;BME280;35527;54.616;39.786;2022-08-03T09:57:04;100056.06;;;32.70;27.41
49627;BME280;35527;54.616;39.786;2022-08-03T10:00:09;100071.03;;;31.80;28.40
49627;BME280;35527;54.616;39.786;2022-08-03T10:03:21;100060.31;;;31.37;29.29
49627;BME280;35527;54.616;39.786;2022-08-03T10:06:24;100061.31;;;31.36;29.51
49627;BME280;35527;54.616;39.786;2022-08-03T10:09:32;100044.59;;;31.92;29.15
49627;BME280;35527;54.616;39.786;2022-08-03T10:12:36;100054.72;;;30.87;30.90
49627;BME280;35527;54.616;39.786;2022-08-03T10:15:43;100058.84;;;31.05;30.19
49627;BME280;35527;54.616;39.786;2022-08-03T10:18:46;100056.25;;;31.62;29.96
49627;BME280;35527;54.616;39.786;2022-08-03T10:21:56;100065.16;;;31.48;30.39
49627;BME280;35527;54.616;39.786;2022-08-03T10:25:08;100071.50;;;32.68;29.05
49627;BME280;35527;54.616;39.786;2022-08-03T10:28:15;100053.59;;;33.10;27.87
49627;BME280;35527;54.616;39.786;2022-08-03T10:31:21;100069.81;;;32.95;28.24
49627;BME280;35527;54.616;39.786;2022-08-03T10:34:33;100035.75;;;31.76;28.86
49627;BME280;35527;54.616;39.786;2022-08-03T10:37:43;100049.59;;;32.29;28.80
49627;BME280;35527;54.616;39.786;2022-08-03T10:40:53;100060.63;;;32.76;28.56
49627;BME280;35527;54.616;39.786;2022-08-03T10:44:10;100058.19;;;32.18;29.28
49627;BME280;35527;54.616;39.786;2022-08-03T10:47:18;100058.72;;;31.42;31.05
49627;BME280;35527;54.616;39.786;2022-08-03T10:50:24;100045.00;;;31.52;30.81
49627;BME280;35527;54.616;39.786;2022-08-03T10:53:38;100070.94;;;32.16;29.78
49627;BME280;35527;54.616;39.786;2022-08-03T10:56:42;100050.03;;;32.61;29.53
49627;BME280;35527;54.616;39.786;2022-08-03T11:00:04;100042.03;;;33.03;28.36
49627;BME280;35527;54.616;39.786;2022-08-03T11:03:12;100052.31;;;32.99;28.20
49627;BME280;35527;54.616;39.786;2022-08-03T11:06:20;100055.44;;;33.09;29.03
49627;BME280;35527;54.616;39.786;2022-08-03T11:09:40;100069.97;;;33.28;28.40
49627;BME280;35527;54.616;39.786;2022-08-03T11:12:46;100068.34;;;33.40;28.64
49627;BME280;35527;54.616;39.786;2022-08-03T11:15:56;100054.22;;;33.18;27.44
49627;BME280;35527;54.616;39.786;2022-08-03T11:19:03;100063.50;;;31.69;29.85
49627;BME280;35527;54.616;39.786;2022-08-03T11:22:07;100055.94;;;30.85;30.79
49627;BME280;35527;54.616;39.786;2022-08-03T11:25:13;100048.75;;;30.18;31.71
49627;BME280;35527;54.616;39.786;2022-08-03T11:28:25;100068.06;;;30.43;31.98
49627;BME280;35527;54.616;39.786;2022-08-03T11:38:10;100060.22;;;30.56;32.21
49627;BME280;35527;54.616;39.786;2022-08-03T11:41:32;100036.47;;;30.32;32.30
49627;BME280;35527;54.616;39.786;2022-08-03T11:45:06;100040.53;;;30.04;32.14
49627;BME280;35527;54.616;39.786;2022-08-03T11:48:14;100033.44;;;30.35;32.04
49627;BME280;35527;54.616;39.786;2022-08-03T11:51:25;100049.47;;;30.35;31.65
49627;BME280;35527;54.616;39.786;2022-08-03T11:54:28;100039.88;;;30.25;31.13
49627;BME280;35527;54.616;39.786;2022-08-03T11:57:34;100055.34;;;30.07;31.74
49627;BME280;35527;54.616;39.786;2022-08-03T12:01:04;100037.84;;;30.04;31.69
49627;BME280;35527;54.616;39.786;2022-08-03T12:04:11;100057.50;;;30.12;32.20
49627;BME280;35527;54.616;39.786;2022-08-03T12:07:13;100036.88;;;30.05;32.34
49627;BME280;35527;54.616;39.786;2022-08-03T12:10:22;100051.56;;;30.01;31.99
49627;BME280;35527;54.616;39.786;2022-08-03T12:13:38;100036.13;;;30.12;31.28
49627;BME280;35527;54.616;39.786;2022-08-03T12:17:07;100043.03;;;30.06;31.45
49627;BME280;35527;54.616;39.786;2022-08-03T12:20:20;100043.25;;;30.19;31.00
49627;BME280;35527;54.616;39.786;2022-08-03T12:23:26;100048.72;;;30.03;31.04
49627;BME280;35527;54.616;39.786;2022-08-03T12:26:48;100012.06;;;29.82;32.38
49627;BME280;35527;54.616;39.786;2022-08-03T12:29:54;100045.41;;;30.01;32.91
49627;BME280;35527;54.616;39.786;2022-08-03T12:32:58;100025.56;;;29.80;32.27
49627;BME280;35527;54.616;39.786;2022-08-03T12:36:08;100044.59;;;30.00;31.54
49627;BME280;35527;54.616;39.786;2022-08-03T12:39:12;100054.97;;;29.72;31.70
49627;BME280;35527;54.616;39.786;2022-08-03T12:42:18;100059.69;;;29.08;32.15
49627;BME280;35527;54.616;39.786;2022-08-03T12:45:21;100043.63;;;28.77;32.63
49627;BME280;35527;54.616;39.786;2022-08-03T12:48:27;100037.97;;;28.71;32.35
49627;BME280;35527;54.616;39.786;2022-08-03T12:52:18;100042.72;;;28.92;32.60
49627;BME280;35527;54.616;39.786;2022-08-03T12:55:06;100061.50;;;29.38;32.70
49627;BME280;35527;54.616;39.786;2022-08-03T12:58:28;100053.38;;;29.63;32.07
49627;BME280;35527;54.616;39.786;2022-08-03T13:01:36;100043.31;;;29.73;31.13
49627;BME280;35527;54.616;39.786;2022-08-03T13:04:40;100041.06;;;29.31;31.50
49627;BME280;35527;54.616;39.786;2022-08-03T13:07:45;100061.06;;;29.27;32.76
49627;BME280;35527;54.616;39.786;2022-08-03T13:10:50;100057.00;;;29.16;32.84
49627;BME280;35527;54.616;39.786;2022-08-03T13:13:54;100043.44;;;28.78;34.59
49627;BME280;35527;54.616;39.786;2022-08-03T13:16:58;100054.66;;;28.65;34.86
49627;BME280;35527;54.616;39.786;2022-08-03T13:20:02;100034.06;;;28.26;34.88
49627;BME280;35527;54.616;39.786;2022-08-03T13:23:05;100026.47;;;27.91;35.08
49627;BME280;35527;54.616;39.786;2022-08-03T13:26:09;100053.06;;;27.99;34.58
49627;BME280;35527;54.616;39.786;2022-08-03T13:29:14;100045.72;;;27.76;34.81
49627;BME280;35527;54.616;39.786;2022-08-03T13:32:20;100024.38;;;27.27;35.26
49627;BME280;35527;54.616;39.786;2022-08-03T13:35:23;100054.88;;;27.15;36.09
49627;BME280;35527;54.616;39.786;2022-08-03T13:38:28;100053.28;;;27.38;35.88
49627;BME280;35527;54.616;39.786;2022-08-03T13:41:57;100048.94;;;27.21;36.06
49627;BME280;35527;54.616;39.786;2022-08-03T13:45:04;100032.94;;;27.05;36.07
49627;BME280;35527;54.616;39.786;2022-08-03T13:48:07;100054.81;;;27.33;35.85
49627;BME280;35527;54.616;39.786;2022-08-03T13:51:11;100016.63;;;27.00;36.18
49627;BME280;35527;54.616;39.786;2022-08-03T13:54:14;100036.69;;;26.94;37.07
49627;BME280;35527;54.616;39.786;2022-08-03T13:57:21;100040.38;;;27.01;37.71
49627;BME280;35527;54.616;39.786;2022-08-03T14:00:25;100029.41;;;26.96;37.75
49627;BME280;35527;54.616;39.786;2022-08-03T14:03:30;100029.16;;;26.73;38.48
49627;BME280;35527;54.616;39.786;2022-08-03T14:06:33;99988.28;;;26.40;38.50
49627;BME280;35527;54.616;39.786;2022-08-03T14:09:39;100039.09;;;26.71;38.13
49627;BME280;35527;54.616;39.786;2022-08-03T14:12:43;100043.94;;;26.76;38.45
49627;BME280;35527;54.616;39.786;2022-08-03T14:15:49;100038.22;;;26.96;38.52
49627;BME280;35527;54.616;39.786;2022-08-03T14:18:54;100049.44;;;27.16;37.32
49627;BME280;35527;54.616;39.786;2022-08-03T14:22:02;100042.97;;;27.19;37.22
49627;BME280;35527;54.616;39.786;2022-08-03T14:25:06;100036.44;;;27.13;37.28
49627;BME280;35527;54.616;39.786;2022-08-03T14:28:11;100048.44;;;27.26;38.03
49627;BME280;35527;54.616;39.786;2022-08-03T14:31:14;100030.00;;;27.24;38.42
49627;BME280;35527;54.616;39.786;2022-08-03T14:34:18;100033.34;;;27.34;38.73
49627;BME280;35527;54.616;39.786;2022-08-03T14:37:21;100040.69;;;27.40;38.97
49627;BME280;35527;54.616;39.786;2022-08-03T14:40:24;100056.13;;;27.37;39.60
49627;BME280;35527;54.616;39.786;2022-08-03T14:43:29;100037.69;;;27.27;39.53
49627;BME280;35527;54.616;39.786;2022-08-03T14:46:32;100047.28;;;27.20;38.81
49627;BME280;35527;54.616;39.786;2022-08-03T14:49:34;100056.41;;;27.17;39.06
49627;BME280;35527;54.616;39.786;2022-08-03T14:52:38;100054.69;;;27.08;38.94
49627;BME280;35527;54.616;39.786;2022-08-03T14:55:43;100037.59;;;26.68;40.09
49627;BME280;35527;54.616;39.786;2022-08-03T14:58:48;100066.16;;;26.74;40.40
49627;BME280;35527;54.616;39.786;2022-08-03T15:01:53;100031.25;;;26.61;40.33
49627;BME280;35527;54.616;39.786;2022-08-03T15:04:57;100063.03;;;26.79;40.31
49627;BME280;35527;54.616;39.786;2022-08-03T15:08:00;100047.19;;;26.69;40.00
49627;BME280;35527;54.616;39.786;2022-08-03T15:11:05;100060.78;;;26.66;39.57
49627;BME280;35527;54.616;39.786;2022-08-03T15:14:07;100042.38;;;26.65;39.61
49627;BME280;35527;54.616;39.786;2022-08-03T15:17:11;100069.38;;;26.86;39.41
49627;BME280;35527;54.616;39.786;2022-08-03T15:20:13;100064.44;;;26.65;39.73
49627;BME280;35527;54.616;39.786;2022-08-03T15:23:17;100051.84;;;26.41;39.68
49627;BME280;35527;54.616;39.786;2022-08-03T15:26:20;100067.22;;;26.38;40.12
49627;BME280;35527;54.616;39.786;2022-08-03T15:29:25;100054.28;;;26.35;40.69
49627;BME280;35527;54.616;39.786;2022-08-03T15:32:28;100053.91;;;26.29;40.69
49627;BME280;35527;54.616;39.786;2022-08-03T15:35:34;100060.72;;;26.32;41.30
49627;BME280;35527;54.616;39.786;2022-08-03T15:38:38;100045.06;;;26.21;41.53
49627;BME280;35527;54.616;39.786;2022-08-03T15:41:42;100034.94;;;26.16;41.25
49627;BME280;35527;54.616;39.786;2022-08-03T15:44:44;100034.59;;;26.19;41.37
49627;BME280;35527;54.616;39.786;2022-08-03T15:47:49;100035.38;;;26.12;41.01
49627;BME280;35527;54.616;39.786;2022-08-03T15:50:52;100043.44;;;26.02;42.15
49627;BME280;35527;54.616;39.786;2022-08-03T15:54:20;100017.81;;;25.75;42.28
49627;BME280;35527;54.616;39.786;2022-08-03T15:57:23;100046.13;;;25.84;42.65
49627;BME280;35527;54.616;39.786;2022-08-03T16:00:33;100055.44;;;25.88;42.98
49627;BME280;35527;54.616;39.786;2022-08-03T16:03:36;100056.13;;;25.90;43.38
49627;BME280;35527;54.616;39.786;2022-08-03T16:06:42;100025.41;;;25.70;43.46
49627;BME280;35527;54.616;39.786;2022-08-03T16:09:45;100048.91;;;25.82;43.81
49627;BME280;35527;54.616;39.786;2022-08-03T16:12:50;100054.63;;;25.78;43.11
49627;BME280;35527;54.616;39.786;2022-08-03T16:15:53;100038.34;;;25.55;43.24
49627;BME280;35527;54.616;39.786;2022-08-03T16:18:57;100058.03;;;25.52;43.49
49627;BME280;35527;54.616;39.786;2022-08-03T16:22:00;100063.72;;;25.39;44.23
49627;BME280;35527;54.616;39.786;2022-08-03T16:25:07;100058.19;;;25.33;44.27